createdAt,value
2023-03-22T00:00:57.164Z,5.22
2023-03-22T00:03:25.538Z,5.40
2023-03-22T00:05:59.371Z,2.67
2023-03-22T00:08:27.228Z,5.35
2023-03-22T00:10:55.007Z,4.43
2023-03-22T00:13:22.847Z,4.45
2023-03-22T00:15:50.653Z,5.20
2023-03-22T00:18:19.102Z,4.15
2023-03-22T00:20:50.230Z,6.25
2023-03-22T00:23:19.554Z,4.03
2023-03-22T00:25:48.086Z,5.57
2023-03-22T00:28:17.080Z,7.07
2023-03-22T00:30:51.716Z,6.18
2023-03-22T00:33:19.604Z,5.05
2023-03-22T00:35:52.429Z,6.13
2023-03-22T00:38:27.215Z,6.07
2023-03-22T00:41:06.557Z,7.03
2023-03-22T00:43:34.433Z,6.72
2023-03-22T00:46:02.200Z,9.43
2023-03-22T00:48:30.453Z,7.70
2023-03-22T00:50:58.353Z,4.60
2023-03-22T00:53:29.071Z,5.50
2023-03-22T00:55:57.141Z,6.88
2023-03-22T00:58:25.156Z,10.57
2023-03-22T01:00:53.045Z,6.55
2023-03-22T01:03:21.859Z,5.28
2023-03-22T01:05:50.404Z,7.32
2023-03-22T01:08:18.184Z,10.85
2023-03-22T01:10:47.327Z,7.05
2023-03-22T01:13:17.551Z,6.10
2023-03-22T01:15:47.689Z,7.55
2023-03-22T01:18:15.561Z,8.35
2023-03-22T01:20:43.435Z,11.60
2023-03-22T01:23:11.431Z,8.45
2023-03-22T01:25:39.337Z,7.90
2023-03-22T01:28:08.715Z,6.93
2023-03-22T01:30:36.970Z,9.95
2023-03-22T01:33:05.709Z,12.57
2023-03-22T01:35:33.917Z,9.55
2023-03-22T01:38:02.098Z,6.82
2023-03-22T01:40:30.368Z,12.00
2023-03-22T01:42:58.486Z,11.52
2023-03-22T01:45:47.701Z,9.43
2023-03-22T01:48:21.978Z,7.82
2023-03-22T01:50:56.816Z,10.32
2023-03-22T01:53:28.048Z,8.90
2023-03-22T01:55:59.189Z,11.02
2023-03-22T01:58:33.215Z,6.32
2023-03-22T02:01:06.137Z,9.88
2023-03-22T02:03:51.037Z,15.20
2023-03-22T02:06:20.113Z,11.82
2023-03-22T02:08:52.966Z,10.27
2023-03-22T02:11:30.300Z,11.32
2023-03-22T02:14:28.442Z,9.70
2023-03-22T02:17:51.148Z,9.68
2023-03-22T02:20:53.044Z,6.33
2023-03-22T02:23:44.403Z,7.60
2023-03-22T02:26:54.407Z,8.00
2023-03-22T02:29:33.903Z,9.15
2023-03-22T02:32:27.107Z,8.25
2023-03-22T02:35:20.439Z,7.50
2023-03-22T02:38:09.972Z,5.03
2023-03-22T02:40:45.328Z,9.15
2023-03-22T02:45:48.593Z,6.55
2023-03-22T02:48:23.622Z,8.35
2023-03-22T02:50:55.577Z,7.35
2023-03-22T02:53:29.555Z,8.38
2023-03-22T02:56:03.149Z,10.13
2023-03-22T02:58:36.973Z,10.63
2023-03-22T03:01:08.342Z,8.20
2023-03-22T03:03:39.586Z,9.32
2023-03-22T03:06:12.463Z,7.32
2023-03-22T03:08:41.224Z,11.73
2023-03-22T03:11:11.676Z,6.32
2023-03-22T03:13:39.633Z,9.30
2023-03-22T03:16:08.619Z,11.70
2023-03-22T03:18:48.369Z,6.55
2023-03-22T03:21:25.673Z,6.72
2023-03-22T03:24:02.572Z,6.78
2023-03-22T03:26:40.531Z,8.95
2023-03-22T03:29:16.740Z,8.80
2023-03-22T03:31:56.080Z,8.52
2023-03-22T03:34:27.431Z,9.30
2023-03-22T03:37:00.188Z,9.48
2023-03-22T03:39:33.620Z,9.32
2023-03-22T03:42:06.055Z,10.90
2023-03-22T03:44:36.538Z,8.02
2023-03-22T03:47:07.007Z,8.35
2023-03-22T03:49:35.217Z,8.65
2023-03-22T03:52:05.769Z,12.10
2023-03-22T03:54:33.737Z,8.30
2023-03-22T03:57:04.172Z,9.50
2023-03-22T03:59:32.136Z,10.45
2023-03-22T04:02:02.980Z,8.13
2023-03-22T04:04:34.725Z,9.43
2023-03-22T04:07:06.518Z,8.05
2023-03-22T04:09:38.300Z,7.88
2023-03-22T04:12:21.694Z,13.43
2023-03-22T04:15:10.756Z,10.90
2023-03-22T04:17:39.502Z,7.65
2023-03-22T04:20:12.529Z,9.85
2023-03-22T04:22:42.344Z,11.10
2023-03-22T04:25:12.602Z,8.43
2023-03-22T04:27:51.502Z,10.80
2023-03-22T04:30:21.560Z,8.88
2023-03-22T04:33:06.835Z,10.57
2023-03-22T04:35:57.314Z,18.77
2023-03-22T04:38:30.933Z,13.70
2023-03-22T04:40:59.260Z,10.82
2023-03-22T04:43:39.492Z,11.05
2023-03-22T04:46:12.638Z,19.30
2023-03-22T04:48:47.464Z,11.90
2023-03-22T04:51:15.374Z,9.13
2023-03-22T04:53:53.944Z,12.65
2023-03-22T04:56:22.197Z,12.38
2023-03-22T04:58:54.166Z,8.90
2023-03-22T05:01:22.000Z,13.00
2023-03-22T05:03:58.904Z,12.93
2023-03-22T05:06:27.978Z,11.55
2023-03-22T05:09:07.148Z,10.48
2023-03-22T05:11:35.148Z,12.15
2023-03-22T05:14:27.296Z,10.95
2023-03-22T05:16:55.126Z,10.23
2023-03-22T05:19:24.402Z,14.52
2023-03-22T05:21:58.045Z,16.38
2023-03-22T05:24:33.651Z,11.15
2023-03-22T05:27:03.686Z,8.82
2023-03-22T05:29:37.066Z,9.68
2023-03-22T05:32:11.914Z,12.73
2023-03-22T05:34:42.701Z,10.65
2023-03-22T05:37:22.851Z,14.90
2023-03-22T05:39:54.436Z,11.73
2023-03-22T05:42:27.134Z,9.20
2023-03-22T05:44:56.399Z,8.82
2023-03-22T05:47:24.563Z,12.38
2023-03-22T05:49:58.438Z,11.00
2023-03-22T05:52:27.481Z,14.70
2023-03-22T05:55:12.532Z,10.00
2023-03-22T05:57:41.256Z,14.25
2023-03-22T06:00:16.161Z,11.32
2023-03-22T06:03:04.365Z,11.48
2023-03-22T06:05:37.344Z,10.48
2023-03-22T06:08:05.812Z,12.00
2023-03-22T06:10:33.678Z,11.07
2023-03-22T06:13:01.562Z,9.75
2023-03-22T06:15:34.249Z,10.77
2023-03-22T06:18:07.616Z,12.20
2023-03-22T06:23:20.325Z,16.05
2023-03-22T06:25:48.517Z,14.68
2023-03-22T06:28:17.549Z,17.98
2023-03-22T06:30:55.536Z,14.32
2023-03-22T06:33:39.169Z,14.82
2023-03-22T06:36:18.651Z,12.07
2023-03-22T06:39:05.218Z,12.77
2023-03-22T06:41:33.859Z,16.42
2023-03-22T06:44:02.584Z,15.75
2023-03-22T06:46:45.706Z,12.07
2023-03-22T06:49:27.990Z,15.70
2023-03-22T06:51:57.060Z,15.70
2023-03-22T06:54:24.931Z,14.43
2023-03-22T06:56:52.793Z,13.27
2023-03-22T06:59:20.704Z,14.27
2023-03-22T07:01:49.882Z,11.57
2023-03-22T07:04:18.028Z,13.30
2023-03-22T07:06:48.110Z,11.52
2023-03-22T07:09:16.260Z,11.63
2023-03-22T07:11:46.571Z,13.13
2023-03-22T07:14:14.513Z,14.82
2023-03-22T07:16:55.151Z,13.73
2023-03-22T07:19:24.374Z,10.55
2023-03-22T07:21:52.559Z,13.63
2023-03-22T07:24:20.622Z,13.55
2023-03-22T07:26:48.439Z,15.38
2023-03-22T07:29:20.900Z,10.55
2023-03-22T07:31:49.263Z,11.43
2023-03-22T07:34:26.015Z,14.57
2023-03-22T07:37:03.839Z,11.70
2023-03-22T07:39:32.246Z,11.95
2023-03-22T07:42:00.239Z,12.48
2023-03-22T07:44:49.686Z,9.90
2023-03-22T07:47:30.628Z,15.63
2023-03-22T07:50:17.633Z,12.88
2023-03-22T07:52:47.686Z,22.10
2023-03-22T07:55:16.180Z,9.50
2023-03-22T07:57:44.285Z,9.63
2023-03-22T08:00:15.984Z,18.48
2023-03-22T08:02:46.219Z,13.07
2023-03-22T08:05:35.866Z,12.48
2023-03-22T08:08:06.892Z,14.80
2023-03-22T08:10:34.923Z,14.68
2023-03-22T08:13:02.741Z,12.38
2023-03-22T08:15:31.300Z,13.10
2023-03-22T08:18:00.632Z,13.20
2023-03-22T08:20:38.290Z,16.17
2023-03-22T08:23:14.456Z,14.25
2023-03-22T08:26:20.769Z,16.95
2023-03-22T08:28:49.505Z,15.60
2023-03-22T08:31:18.918Z,8.77
2023-03-22T08:33:48.049Z,14.40
2023-03-22T08:36:19.219Z,13.95
2023-03-22T08:38:53.439Z,11.80
2023-03-22T08:41:28.937Z,14.70
2023-03-22T08:43:57.324Z,10.43
2023-03-22T08:46:25.176Z,12.73
2023-03-22T08:48:53.800Z,14.32
2023-03-22T08:51:43.426Z,12.95
2023-03-22T08:54:16.917Z,14.93
2023-03-22T08:56:53.743Z,13.88
2023-03-22T08:59:44.447Z,10.70
2023-03-22T09:02:26.713Z,13.18
2023-03-22T09:04:55.369Z,12.55
2023-03-22T09:07:25.033Z,11.77
2023-03-22T09:10:03.437Z,16.55
2023-03-22T09:12:32.400Z,10.20
2023-03-22T09:15:00.335Z,9.38
2023-03-22T09:17:31.023Z,14.00
2023-03-22T09:20:11.544Z,11.88
2023-03-22T09:22:43.180Z,11.07
2023-03-22T09:25:13.513Z,8.82
2023-03-22T09:27:44.087Z,6.38
2023-03-22T09:30:12.897Z,6.32
2023-03-22T09:32:40.794Z,10.20
2023-03-22T09:35:10.312Z,7.90
2023-03-22T09:37:53.188Z,7.82
2023-03-22T09:40:22.602Z,6.47
2023-03-22T09:42:53.891Z,10.88
2023-03-22T09:45:29.972Z,8.50
2023-03-22T09:47:59.524Z,12.02
2023-03-22T09:50:30.974Z,7.10
2023-03-22T09:53:00.814Z,8.20
2023-03-22T09:55:38.772Z,6.97
2023-03-22T09:58:17.878Z,4.70
2023-03-22T10:00:49.235Z,6.30
2023-03-22T10:03:34.965Z,4.07
2023-03-22T10:08:43.391Z,4.30
2023-03-22T10:11:19.477Z,2.97
2023-03-22T10:13:56.456Z,4.03
2023-03-22T10:16:28.927Z,4.47
2023-03-22T10:19:06.163Z,5.32
2023-03-22T10:21:35.631Z,3.50
2023-03-22T10:24:10.234Z,4.97
2023-03-22T10:26:40.559Z,3.35
2023-03-22T10:29:14.557Z,7.10
2023-03-22T10:31:45.941Z,2.40
2023-03-22T10:34:20.802Z,7.32
2023-03-22T10:36:51.616Z,3.78
2023-03-22T10:39:30.284Z,5.85
2023-03-22T10:42:01.949Z,3.13
2023-03-22T10:44:34.734Z,2.53
2023-03-22T10:47:08.041Z,2.70
2023-03-22T10:49:41.051Z,5.47
2023-03-22T10:52:21.055Z,3.38
2023-03-22T10:54:50.214Z,4.40
2023-03-22T10:57:18.240Z,3.92
2023-03-22T10:59:48.277Z,2.72
2023-03-22T11:02:21.484Z,2.00
2023-03-22T11:04:51.335Z,4.57
2023-03-22T11:07:32.188Z,4.72
2023-03-22T11:10:13.287Z,4.60
2023-03-22T11:12:47.536Z,4.55
2023-03-22T11:15:25.484Z,7.25
2023-03-22T11:17:55.911Z,3.58
2023-03-22T11:20:23.785Z,5.43
2023-03-22T11:22:52.092Z,4.60
2023-03-22T11:25:23.683Z,5.68
2023-03-22T11:27:54.089Z,6.75
2023-03-22T11:30:25.308Z,7.05
2023-03-22T11:33:01.842Z,3.17
2023-03-22T11:35:31.655Z,5.93
2023-03-22T11:38:02.482Z,9.32
2023-03-22T11:40:33.511Z,4.40
2023-03-22T11:43:13.876Z,3.90
2023-03-22T11:45:43.950Z,5.30
2023-03-22T11:48:16.332Z,4.57
2023-03-22T11:50:45.775Z,1.25
2023-03-22T11:53:16.240Z,6.13
2023-03-22T11:55:46.790Z,4.68
2023-03-22T11:58:27.865Z,2.47
2023-03-22T12:00:57.984Z,7.53
2023-03-22T12:03:29.514Z,2.22
2023-03-22T12:05:58.508Z,4.72
2023-03-22T12:08:31.490Z,2.38
2023-03-22T12:11:05.819Z,1.92
2023-03-22T12:13:40.892Z,5.95
2023-03-22T12:16:12.686Z,2.83
2023-03-22T12:18:46.578Z,2.67
2023-03-22T12:21:15.660Z,2.95
2023-03-22T12:23:43.677Z,2.67
2023-03-22T12:26:18.201Z,6.15
2023-03-22T12:28:55.092Z,2.27
2023-03-22T12:31:27.779Z,3.50
2023-03-22T12:33:57.823Z,2.72
2023-03-22T12:36:32.831Z,4.35
2023-03-22T12:39:03.170Z,3.53
2023-03-22T12:41:36.798Z,8.30
2023-03-22T12:44:12.596Z,4.18
2023-03-22T12:46:50.123Z,1.45
2023-03-22T12:49:26.499Z,6.85
2023-03-22T12:51:56.424Z,1.73
2023-03-22T12:54:29.058Z,3.47
2023-03-22T12:56:58.820Z,1.70
2023-03-22T12:59:32.187Z,8.05
2023-03-22T13:02:05.979Z,4.15
2023-03-22T13:04:51.069Z,5.05
2023-03-22T13:07:41.193Z,2.38
2023-03-22T13:10:42.953Z,3.65
2023-03-22T13:13:17.753Z,3.03
2023-03-22T13:16:01.423Z,1.33
2023-03-22T13:19:00.764Z,2.80
2023-03-22T13:21:30.813Z,2.83
2023-03-22T13:24:02.152Z,4.00
2023-03-22T13:26:36.846Z,2.17
2023-03-22T13:29:16.317Z,2.60
2023-03-22T13:31:46.132Z,8.30
2023-03-22T13:34:16.629Z,1.40
2023-03-22T13:36:51.982Z,2.83
2023-03-22T13:42:08.017Z,3.53
2023-03-22T13:44:43.860Z,2.00
2023-03-22T13:47:37.099Z,1.48
2023-03-22T13:50:14.394Z,6.55
2023-03-22T13:52:44.966Z,1.05
2023-03-22T13:55:42.274Z,2.03
2023-03-22T13:58:12.866Z,7.82
2023-03-22T14:00:53.695Z,3.72
2023-03-22T14:03:29.342Z,5.60
2023-03-22T14:06:09.474Z,5.82
2023-03-22T14:08:38.889Z,3.17
2023-03-22T14:11:20.269Z,2.53
2023-03-22T14:13:51.426Z,2.60
2023-03-22T14:16:29.103Z,6.40
2023-03-22T14:18:57.787Z,2.30
2023-03-22T14:21:34.916Z,3.80
